createdAt,value
2017-11-13T00:00:47.610Z,0
2017-11-13T00:01:47.249Z,0
2017-11-13T00:02:46.895Z,0
2017-11-13T00:03:47.542Z,0
2017-11-13T00:04:46.854Z,0
2017-11-13T00:05:47.855Z,0
2017-11-13T00:06:47.479Z,0
2017-11-13T00:07:46.788Z,0
2017-11-13T00:08:47.452Z,0
2017-11-13T00:09:47.416Z,0
2017-11-13T00:10:47.060Z,0
2017-11-13T00:11:47.425Z,0
2017-11-13T00:12:47.350Z,0
2017-11-13T00:13:46.998Z,0
2017-11-13T00:14:46.971Z,0
2017-11-13T00:15:47.286Z,0
2017-11-13T00:16:47.272Z,0
2017-11-13T00:17:46.916Z,0
2017-11-13T00:18:47.232Z,0
2017-11-13T00:19:46.865Z,0
2017-11-13T00:20:47.519Z,0
2017-11-13T00:21:47.171Z,0
2017-11-13T00:22:47.136Z,0
2017-11-13T00:23:47.472Z,0
2017-11-13T00:24:47.136Z,0
2017-11-13T00:25:47.427Z,0
2017-11-13T00:26:46.728Z,0
2017-11-13T00:27:46.913Z,0
2017-11-13T00:28:47.350Z,0
2017-11-13T00:29:46.655Z,0
2017-11-13T00:30:46.654Z,0
2017-11-13T00:31:46.944Z,0
2017-11-13T00:32:46.927Z,0
2017-11-13T00:33:46.575Z,0
2017-11-13T00:34:46.926Z,0
2017-11-13T00:35:46.542Z,0
2017-11-13T00:36:46.866Z,0
2017-11-13T00:37:47.165Z,0
2017-11-13T00:38:46.465Z,0
2017-11-13T00:39:47.121Z,0
2017-11-13T00:40:47.095Z,0
2017-11-13T00:41:47.075Z,0
2017-11-13T00:42:47.056Z,0
2017-11-13T00:43:46.358Z,0
2017-11-13T00:44:46.342Z,0
2017-11-13T00:45:46.364Z,0
2017-11-13T00:46:46.294Z,0
2017-11-13T00:47:46.612Z,0
2017-11-13T00:48:46.928Z,0
2017-11-13T00:49:46.911Z,0
2017-11-13T00:50:46.551Z,0
2017-11-13T00:51:46.515Z,0
2017-11-13T00:52:46.515Z,0
2017-11-13T00:53:46.493Z,0
2017-11-13T00:54:46.117Z,0
2017-11-13T00:55:46.495Z,0
2017-11-13T00:56:46.797Z,0
2017-11-13T00:57:46.722Z,0
2017-11-13T00:58:46.723Z,0
2017-11-13T00:59:46.347Z,0
2017-11-13T01:00:46.323Z,0
2017-11-13T01:01:46.301Z,0
2017-11-13T01:02:46.631Z,0
2017-11-13T01:03:46.264Z,0
2017-11-13T01:04:46.244Z,0
2017-11-13T01:05:46.232Z,0
2017-11-13T01:06:46.529Z,0
2017-11-13T01:07:45.843Z,0
2017-11-13T01:08:46.501Z,0
2017-11-13T01:09:45.791Z,0
2017-11-13T01:10:46.110Z,0
2017-11-13T01:11:46.150Z,0
2017-11-13T01:12:46.073Z,0
2017-11-13T01:13:46.049Z,0
2017-11-13T01:14:46.366Z,0
2017-11-13T01:15:46.009Z,0
2017-11-13T01:16:45.649Z,0
2017-11-13T01:17:45.636Z,0
2017-11-13T01:18:45.934Z,0
2017-11-13T01:19:46.260Z,0
2017-11-13T01:20:45.569Z,0
2017-11-13T01:21:46.208Z,0
2017-11-13T01:22:45.866Z,0
2017-11-13T01:23:45.846Z,0
2017-11-13T01:24:45.812Z,0
2017-11-13T01:25:45.788Z,0
2017-11-13T01:26:45.484Z,0
2017-11-13T01:27:45.407Z,0
2017-11-13T01:28:45.391Z,0
2017-11-13T01:29:46.045Z,0
2017-11-13T01:30:45.688Z,0
2017-11-13T01:31:44.982Z,0
2017-11-13T01:32:45.304Z,0
2017-11-13T01:33:45.612Z,0
2017-11-13T01:34:45.594Z,0
2017-11-13T01:35:45.569Z,0
2017-11-13T01:36:45.597Z,0
2017-11-13T01:37:45.534Z,0
2017-11-13T01:38:45.174Z,0
2017-11-13T01:39:45.143Z,0
2017-11-13T01:40:45.133Z,0
2017-11-13T01:41:45.109Z,0
2017-11-13T01:42:45.076Z,0
2017-11-13T01:43:45.749Z,0
2017-11-13T01:44:45.377Z,0
2017-11-13T01:45:45.353Z,0
2017-11-13T01:46:45.716Z,0
2017-11-13T01:47:45.309Z,0
2017-11-13T01:48:45.288Z,0
2017-11-13T01:49:44.938Z,0
2017-11-13T01:50:44.905Z,0
2017-11-13T01:51:45.614Z,0
2017-11-13T01:52:45.742Z,0
2017-11-13T01:53:45.196Z,0
2017-11-13T01:54:45.168Z,0
2017-11-13T01:55:44.467Z,0
2017-11-13T01:56:44.777Z,0
2017-11-13T01:57:44.765Z,0
2017-11-13T01:58:45.082Z,0
2017-11-13T01:59:45.384Z,0
2017-11-13T02:00:44.708Z,0
2017-11-13T02:01:45.009Z,0
2017-11-13T02:02:44.649Z,0
2017-11-13T02:03:44.293Z,0
2017-11-13T02:04:44.605Z,0
2017-11-13T02:05:44.922Z,0
2017-11-13T02:06:44.902Z,0
2017-11-13T02:07:45.220Z,0
2017-11-13T02:08:45.199Z,0
2017-11-13T02:09:45.169Z,0
2017-11-13T02:10:44.486Z,0
2017-11-13T02:11:45.135Z,0
2017-11-13T02:12:45.115Z,0
2017-11-13T02:13:44.421Z,0
2017-11-13T02:14:44.394Z,0
2017-11-13T02:15:44.707Z,0
2017-11-13T02:16:45.018Z,0
2017-11-13T02:17:44.684Z,0
2017-11-13T02:18:44.641Z,0
2017-11-13T02:19:44.627Z,0
2017-11-13T02:20:44.259Z,0
2017-11-13T02:21:44.582Z,0
2017-11-13T02:22:44.946Z,0
2017-11-13T02:23:44.205Z,0
2017-11-13T02:24:44.197Z,0
2017-11-13T02:25:44.161Z,0
2017-11-13T02:26:43.798Z,0
2017-11-13T02:27:44.479Z,0
2017-11-13T02:28:44.429Z,0
2017-11-13T02:29:44.751Z,0
2017-11-13T02:30:44.045Z,0
2017-11-13T02:31:44.025Z,0
2017-11-13T02:32:44.679Z,0
2017-11-13T02:33:44.324Z,0
2017-11-13T02:34:44.302Z,0
2017-11-13T02:35:44.281Z,0
2017-11-13T02:36:44.613Z,0
2017-11-13T02:37:43.950Z,0
2017-11-13T02:38:43.877Z,0
2017-11-13T02:39:44.241Z,0
2017-11-13T02:40:44.509Z,0
2017-11-13T02:41:44.144Z,0
2017-11-13T02:42:44.172Z,0
2017-11-13T02:43:43.773Z,0
2017-11-13T02:44:44.423Z,0
2017-11-13T02:45:43.726Z,0
2017-11-13T02:46:44.088Z,0
2017-11-13T02:47:44.019Z,0
2017-11-13T02:48:43.657Z,0
2017-11-13T02:49:43.991Z,0
2017-11-13T02:50:43.950Z,0
2017-11-13T02:51:43.943Z,0
2017-11-13T02:52:43.981Z,0
2017-11-13T02:53:43.888Z,0
2017-11-13T02:54:44.217Z,0
2017-11-13T02:55:43.865Z,0
2017-11-13T02:56:44.164Z,0
2017-11-13T02:57:43.802Z,0
2017-11-13T02:58:43.454Z,0
2017-11-13T02:59:43.765Z,0
2017-11-13T03:00:43.073Z,0
2017-11-13T03:01:44.064Z,0
2017-11-13T03:02:43.368Z,0
2017-11-13T03:03:44.011Z,0
2017-11-13T03:04:43.671Z,0
2017-11-13T03:05:43.300Z,0
2017-11-13T03:06:43.612Z,0
2017-11-13T03:07:43.591Z,0
2017-11-13T03:08:43.573Z,0
2017-11-13T03:09:43.882Z,0
2017-11-13T03:10:43.521Z,0
2017-11-13T03:11:43.164Z,0
2017-11-13T03:12:43.154Z,0
2017-11-13T03:13:43.454Z,0
2017-11-13T03:14:42.783Z,0
2017-11-13T03:15:43.416Z,0
2017-11-13T03:16:43.773Z,0
2017-11-13T03:17:43.048Z,0
2017-11-13T03:18:43.024Z,0
2017-11-13T03:19:42.994Z,0
2017-11-13T03:20:43.314Z,0
2017-11-13T03:21:42.947Z,0
2017-11-13T03:22:42.930Z,0
2017-11-13T03:23:43.305Z,0
2017-11-13T03:24:43.576Z,0
2017-11-13T03:25:43.210Z,0
2017-11-13T03:26:43.181Z,0
2017-11-13T03:27:43.172Z,0
2017-11-13T03:28:43.140Z,0
2017-11-13T03:29:43.122Z,0
2017-11-13T03:30:43.106Z,0
2017-11-13T03:31:42.758Z,0
2017-11-13T03:32:43.394Z,0
2017-11-13T03:33:42.761Z,0
2017-11-13T03:34:42.676Z,0
2017-11-13T03:35:42.323Z,0
2017-11-13T03:36:43.329Z,0
2017-11-13T03:37:43.306Z,0
2017-11-13T03:38:42.639Z,0
2017-11-13T03:39:42.570Z,0
2017-11-13T03:40:42.551Z,0
2017-11-13T03:41:42.866Z,0
2017-11-13T03:42:42.180Z,0
2017-11-13T03:43:43.175Z,0
2017-11-13T03:44:42.484Z,0
2017-11-13T03:45:42.104Z,0
2017-11-13T03:46:43.091Z,0
2017-11-13T03:47:43.075Z,0
2017-11-13T03:48:42.775Z,0
2017-11-13T03:49:42.392Z,0
2017-11-13T03:50:42.689Z,0
2017-11-13T03:51:42.665Z,0
2017-11-13T03:52:57.447Z,0
2017-11-13T03:53:42.328Z,0
2017-11-13T03:54:42.644Z,0
2017-11-13T03:55:42.231Z,0
2017-11-13T03:56:42.209Z,0
2017-11-13T03:57:42.528Z,0
2017-11-13T03:58:42.899Z,0
2017-11-13T03:59:42.822Z,0
2017-11-13T04:00:42.854Z,0
2017-11-13T04:01:42.112Z,0
2017-11-13T04:02:42.430Z,0
2017-11-13T04:03:41.731Z,0
2017-11-13T04:04:41.709Z,0
2017-11-13T04:05:41.687Z,0
2017-11-13T04:06:42.340Z,0
2017-11-13T04:07:42.316Z,0
2017-11-13T04:08:41.621Z,0
2017-11-13T04:09:41.940Z,0
2017-11-13T04:10:42.256Z,0
2017-11-13T04:11:42.585Z,0
2017-11-13T04:12:42.208Z,0
2017-11-13T04:13:42.576Z,0
2017-11-13T04:14:42.502Z,0
2017-11-13T04:15:41.812Z,0
2017-11-13T04:16:41.829Z,0
2017-11-13T04:17:42.100Z,0
2017-11-13T04:18:42.077Z,0
2017-11-13T04:19:42.059Z,0
2017-11-13T04:20:42.047Z,0
2017-11-13T04:21:42.016Z,0
2017-11-13T04:22:42.010Z,0
2017-11-13T04:23:42.314Z,0
2017-11-13T04:24:41.953Z,0
2017-11-13T04:25:41.949Z,0
2017-11-13T04:26:41.238Z,0
2017-11-13T04:27:41.223Z,0
2017-11-13T04:28:42.206Z,0
2017-11-13T04:29:41.853Z,0
2017-11-13T04:30:42.207Z,0
2017-11-13T04:31:42.159Z,0
2017-11-13T04:32:41.790Z,0
2017-11-13T04:33:41.771Z,0
2017-11-13T04:34:41.745Z,0
2017-11-13T04:35:41.385Z,0
2017-11-13T04:36:41.719Z,0
2017-11-13T04:37:41.014Z,0
2017-11-13T04:38:41.660Z,0
2017-11-13T04:39:40.967Z,0
2017-11-13T04:40:41.623Z,0
2017-11-13T04:41:41.933Z,0
2017-11-13T04:42:41.247Z,0
2017-11-13T04:43:41.907Z,0
2017-11-13T04:44:41.252Z,0
2017-11-13T04:45:41.512Z,0
2017-11-13T04:46:41.503Z,0
2017-11-13T04:47:40.866Z,0
2017-11-13T04:48:41.817Z,0
2017-11-13T04:49:41.095Z,0
2017-11-13T04:50:41.745Z,0
2017-11-13T04:51:41.721Z,0
2017-11-13T04:52:41.695Z,0
2017-11-13T04:53:41.338Z,0
2017-11-13T04:54:41.373Z,0
2017-11-13T04:55:41.633Z,0
2017-11-13T04:56:41.279Z,0
2017-11-13T04:57:41.253Z,0
2017-11-13T04:58:41.633Z,0
2017-11-13T04:59:40.882Z,0
2017-11-13T05:00:41.218Z,0
2017-11-13T05:01:41.518Z,0
2017-11-13T05:02:41.481Z,0
2017-11-13T05:03:41.136Z,0
2017-11-13T05:04:40.776Z,0
2017-11-13T05:05:41.094Z,0
2017-11-13T05:06:41.065Z,0
2017-11-13T05:07:41.048Z,0
2017-11-13T05:08:40.359Z,0
2017-11-13T05:09:41.354Z,0
2017-11-13T05:10:40.982Z,0
2017-11-13T05:11:41.304Z,0
2017-11-13T05:12:40.610Z,0
2017-11-13T05:13:41.268Z,0
2017-11-13T05:14:40.576Z,0
2017-11-13T05:15:41.224Z,0
2017-11-13T05:16:40.193Z,0
2017-11-13T05:17:41.177Z,0
2017-11-13T05:18:40.820Z,0
2017-11-13T05:19:41.140Z,0
2017-11-13T05:20:40.437Z,0
2017-11-13T05:21:40.759Z,0
2017-11-13T05:22:41.069Z,0
2017-11-13T05:23:41.046Z,0
2017-11-13T05:24:40.355Z,0
2017-11-13T05:25:40.341Z,0
2017-11-13T05:26:40.993Z,0
2017-11-13T05:27:40.630Z,0
2017-11-13T05:28:40.608Z,0
2017-11-13T05:29:40.932Z,0
2017-11-13T05:30:40.958Z,0
2017-11-13T05:31:40.548Z,0
2017-11-13T05:32:40.186Z,0
2017-11-13T05:33:40.836Z,0
2017-11-13T05:34:40.475Z,0
2017-11-13T05:35:40.466Z,0
2017-11-13T05:36:40.437Z,0
2017-11-13T05:37:39.742Z,0
2017-11-13T05:38:40.060Z,0
2017-11-13T05:39:40.704Z,0
2017-11-13T05:40:40.412Z,0
2017-11-13T05:41:39.989Z,0
2017-11-13T05:42:39.984Z,0
2017-11-13T05:43:39.980Z,0
2017-11-13T05:44:40.277Z,0
2017-11-13T05:45:40.353Z,0
2017-11-13T05:46:40.567Z,0
2017-11-13T05:47:39.870Z,0
2017-11-13T05:48:40.182Z,0
2017-11-13T05:49:40.167Z,0
2017-11-13T05:50:40.199Z,0
2017-11-13T05:51:39.789Z,0
2017-11-13T05:52:40.296Z,0
2017-11-13T05:53:40.081Z,0
2017-11-13T05:54:40.399Z,0
2017-11-13T05:55:40.051Z,0
2017-11-13T05:56:40.023Z,0
2017-11-13T05:57:39.668Z,0
2017-11-13T05:58:40.303Z,0
2017-11-13T05:59:39.620Z,0
2017-11-13T06:00:40.078Z,0
2017-11-13T06:01:40.241Z,0
2017-11-13T06:02:39.216Z,0
2017-11-13T06:03:39.863Z,0
2017-11-13T06:04:39.838Z,0
2017-11-13T06:05:39.833Z,0
2017-11-13T06:06:39.468Z,0
2017-11-13T06:07:39.108Z,0
2017-11-13T06:08:39.753Z,0
2017-11-13T06:09:39.396Z,0
2017-11-13T06:10:39.050Z,0
2017-11-13T06:11:39.359Z,0
2017-11-13T06:12:40.007Z,0
2017-11-13T06:13:39.312Z,0
2017-11-13T06:14:39.299Z,0
2017-11-13T06:15:40.001Z,4
2017-11-13T06:16:39.250Z,4
2017-11-13T06:17:39.576Z,4
2017-11-13T06:18:39.548Z,4
2017-11-13T06:19:39.862Z,4
2017-11-13T06:20:39.500Z,4
2017-11-13T06:21:39.487Z,8
2017-11-13T06:22:39.792Z,4
2017-11-13T06:23:38.803Z,8
2017-11-13T06:24:39.103Z,12
2017-11-13T06:25:39.075Z,16
2017-11-13T06:26:39.382Z,16
2017-11-13T06:27:39.024Z,16
2017-11-13T06:28:38.663Z,16
2017-11-13T06:29:38.976Z,24
2017-11-13T06:30:39.297Z,24
2017-11-13T06:31:38.943Z,32
2017-11-13T06:32:39.252Z,36
2017-11-13T06:33:38.890Z,40
2017-11-13T06:34:39.216Z,44
2017-11-13T06:35:39.182Z,52
2017-11-13T06:36:39.172Z,56
2017-11-13T06:37:39.144Z,64
2017-11-13T06:38:38.789Z,76
2017-11-13T06:39:38.760Z,84
2017-11-13T06:40:39.074Z,92
2017-11-13T06:41:39.404Z,100
2017-11-13T06:42:39.043Z,96
2017-11-13T06:43:39.358Z,108
2017-11-13T06:44:38.994Z,112
2017-11-13T06:45:38.969Z,88
2017-11-13T06:46:39.287Z,92
2017-11-13T06:47:38.928Z,116
2017-11-13T06:48:38.236Z,140
2017-11-13T06:49:38.889Z,156
2017-11-13T06:50:38.531Z,160
2017-11-13T06:51:38.558Z,180
2017-11-13T06:52:38.483Z,204
2017-11-13T06:53:38.464Z,232
2017-11-13T06:54:38.780Z,252
2017-11-13T06:55:38.421Z,280
2017-11-13T06:56:39.078Z,304
2017-11-13T06:57:38.411Z,328
2017-11-13T06:58:39.065Z,348
2017-11-13T06:59:39.011Z,368
2017-11-13T07:00:38.314Z,392
2017-11-13T07:01:38.011Z,416
2017-11-13T07:02:38.616Z,436
2017-11-13T07:03:38.928Z,456
2017-11-13T07:04:38.577Z,480
2017-11-13T07:05:38.546Z,504
2017-11-13T07:06:38.590Z,528
2017-11-13T07:07:38.166Z,556
2017-11-13T07:08:38.829Z,580
2017-11-13T07:09:38.132Z,604
2017-11-13T07:10:38.106Z,628
2017-11-13T07:11:38.138Z,652
2017-11-13T07:12:38.739Z,684
2017-11-13T07:13:37.705Z,716
2017-11-13T07:14:38.363Z,772
2017-11-13T07:15:38.668Z,816
2017-11-13T07:16:38.321Z,880
2017-11-13T07:17:38.297Z,1076
2017-11-13T07:18:37.954Z,968
2017-11-13T07:19:37.930Z,848
2017-11-13T07:20:37.897Z,832
2017-11-13T07:21:37.537Z,840
2017-11-13T07:22:38.193Z,860
2017-11-13T07:23:37.835Z,892
2017-11-13T07:24:37.817Z,924
2017-11-13T07:25:38.136Z,964
2017-11-13T07:26:38.103Z,996
2017-11-13T07:27:38.415Z,1056
2017-11-13T07:28:38.083Z,1232
2017-11-13T07:29:37.705Z,1244
2017-11-13T07:30:37.681Z,1316
2017-11-13T07:31:37.676Z,1440
2017-11-13T07:32:38.319Z,1432
2017-11-13T07:33:37.626Z,1392
2017-11-13T07:34:38.293Z,1572
2017-11-13T07:35:37.600Z,1624
2017-11-13T07:36:37.898Z,1600
2017-11-13T07:37:37.598Z,1832
2017-11-13T07:38:37.849Z,1800
2017-11-13T07:39:37.153Z,1716
2017-11-13T07:40:37.828Z,1504
2017-11-13T07:41:37.456Z,1408
2017-11-13T07:42:37.865Z,1380
2017-11-13T07:43:37.411Z,1400
2017-11-13T07:44:37.420Z,1456
2017-11-13T07:45:37.376Z,1512
2017-11-13T07:46:38.024Z,1552
2017-11-13T07:47:37.374Z,1568
2017-11-13T07:48:37.318Z,1596
2017-11-13T07:49:37.965Z,1732
2017-11-13T07:50:37.264Z,1784
2017-11-13T07:51:37.582Z,1728
2017-11-13T07:52:38.100Z,1672
2017-11-13T07:53:37.743Z,1672
2017-11-13T07:54:37.862Z,1704
2017-11-13T07:55:37.502Z,1760
2017-11-13T07:56:37.477Z,1812
2017-11-13T07:57:37.457Z,1848
2017-11-13T07:58:37.455Z,1872
2017-11-13T07:59:36.744Z,1888
2017-11-13T08:00:37.059Z,1888
2017-11-13T08:01:37.378Z,1900
2017-11-13T08:02:37.700Z,1844
2017-11-13T08:03:37.002Z,1844
2017-11-13T08:04:37.310Z,1852
2017-11-13T08:05:36.960Z,1916
2017-11-13T08:06:37.270Z,1980
2017-11-13T08:07:37.269Z,1992
2017-11-13T08:08:37.247Z,1996
2017-11-13T08:09:37.219Z,2080
2017-11-13T08:10:37.533Z,2152
2017-11-13T08:11:36.835Z,2188
2017-11-13T08:12:37.502Z,2276
2017-11-13T08:13:37.130Z,2284
2017-11-13T08:14:37.454Z,2304
2017-11-13T08:15:36.429Z,2328
2017-11-13T08:16:37.089Z,2336
2017-11-13T08:17:37.404Z,2380
2017-11-13T08:18:36.356Z,2412
2017-11-13T08:19:36.679Z,2400
2017-11-13T08:20:36.654Z,2372
2017-11-13T08:21:36.969Z,2380
2017-11-13T08:22:36.610Z,2420
2017-11-13T08:23:36.984Z,2452
2017-11-13T08:24:36.916Z,2476
2017-11-13T08:25:36.886Z,2840
2017-11-13T08:26:36.534Z,3816
2017-11-13T08:27:36.171Z,4096
2017-11-13T08:28:36.160Z,4848
2017-11-13T08:29:36.814Z,4528
2017-11-13T08:30:36.469Z,4240
2017-11-13T08:31:36.779Z,4460
2017-11-13T08:32:37.082Z,4752
2017-11-13T08:33:37.065Z,4372
2017-11-13T08:34:36.705Z,3320
2017-11-13T08:35:36.687Z,2628
2017-11-13T08:36:36.675Z,2376
2017-11-13T08:37:36.644Z,2972
2017-11-13T08:38:36.966Z,4328
2017-11-13T08:39:36.618Z,4284
2017-11-13T08:40:36.590Z,3688
2017-11-13T08:41:36.228Z,3032
2017-11-13T08:42:36.544Z,2720
2017-11-13T08:43:36.527Z,2564
2017-11-13T08:44:36.179Z,2620
2017-11-13T08:45:36.155Z,2672
2017-11-13T08:46:35.795Z,2668
2017-11-13T08:47:36.111Z,2692
2017-11-13T08:48:36.194Z,2760
2017-11-13T08:49:36.421Z,2800
2017-11-13T08:50:36.061Z,2816
2017-11-13T08:51:36.377Z,2828
2017-11-13T08:52:36.720Z,2872
2017-11-13T08:53:36.386Z,2916
2017-11-13T08:54:36.651Z,2964
2017-11-13T08:55:36.301Z,3020
2017-11-13T08:56:35.947Z,3080
2017-11-13T08:57:36.253Z,3196
2017-11-13T08:58:36.576Z,3920
2017-11-13T08:59:35.880Z,5100
2017-11-13T09:00:36.539Z,5936
2017-11-13T09:01:36.178Z,5572
2017-11-13T09:02:36.493Z,5212
2017-11-13T09:03:36.197Z,4424
2017-11-13T09:04:36.467Z,3852
2017-11-13T09:05:35.769Z,3684
2017-11-13T09:06:35.748Z,3948
2017-11-13T09:07:36.071Z,3824
2017-11-13T09:08:36.385Z,3716
2017-11-13T09:09:35.355Z,3096
2017-11-13T09:10:36.002Z,3336
2017-11-13T09:11:35.661Z,2952
2017-11-13T09:12:35.976Z,3088
2017-11-13T09:13:35.615Z,3756
2017-11-13T09:14:35.260Z,3884
2017-11-13T09:15:35.578Z,3712
2017-11-13T09:16:35.559Z,3804
2017-11-13T09:17:36.199Z,5908
2017-11-13T09:18:35.179Z,7884
2017-11-13T09:19:36.244Z,7128
2017-11-13T09:20:35.488Z,4308
2017-11-13T09:21:35.502Z,4028
2017-11-13T09:22:35.782Z,4736
2017-11-13T09:23:35.765Z,5688
2017-11-13T09:24:35.404Z,6412
2017-11-13T09:25:35.724Z,9356
2017-11-13T09:26:35.701Z,7900
2017-11-13T09:27:35.691Z,6792
2017-11-13T09:28:35.677Z,6756
2017-11-13T09:29:35.649Z,5208
2017-11-13T09:30:35.970Z,4572
2017-11-13T09:31:35.972Z,4572
2017-11-13T09:32:35.935Z,5044
2017-11-13T09:33:35.585Z,5160
2017-11-13T09:34:35.565Z,5468
2017-11-13T09:35:35.203Z,5168
2017-11-13T09:36:35.860Z,4936
2017-11-13T09:37:35.165Z,4196
2017-11-13T09:38:34.816Z,5292
2017-11-13T09:39:35.190Z,5408
2017-11-13T09:40:35.452Z,5016
2017-11-13T09:41:35.435Z,4728
2017-11-13T09:42:35.752Z,4628
2017-11-13T09:43:35.396Z,4400
2017-11-13T09:44:35.391Z,4292
2017-11-13T09:45:35.360Z,4160
2017-11-13T09:46:35.344Z,6528
2017-11-13T09:47:35.675Z,5880
2017-11-13T09:48:34.970Z,5524
2017-11-13T09:49:35.651Z,5556
2017-11-13T09:50:35.664Z,5448
2017-11-13T09:51:35.265Z,6072
2017-11-13T09:52:34.570Z,7964
2017-11-13T09:53:35.421Z,7236
2017-11-13T09:54:35.209Z,8500
2017-11-13T09:55:35.185Z,6976
2017-11-13T09:56:34.840Z,7040
2017-11-13T09:57:35.160Z,8284
2017-11-13T09:58:35.146Z,8648
2017-11-13T09:59:35.191Z,6980
2017-11-13T10:00:34.763Z,7212
2017-11-13T10:01:35.083Z,5120
2017-11-13T10:02:35.425Z,7924
2017-11-13T10:03:35.055Z,5308
2017-11-13T10:04:34.696Z,5636
2017-11-13T10:05:34.687Z,6644
2017-11-13T10:06:35.021Z,6528
2017-11-13T10:07:35.351Z,6588
2017-11-13T10:08:34.970Z,6712
2017-11-13T10:09:35.334Z,7504
2017-11-13T10:10:35.280Z,8132
2017-11-13T10:11:34.921Z,9004
2017-11-13T10:12:34.904Z,9812
2017-11-13T10:13:35.229Z,8460
2017-11-13T10:14:34.870Z,7328
2017-11-13T10:15:35.193Z,6552
2017-11-13T10:16:34.839Z,6180
2017-11-13T10:17:34.832Z,6588
2017-11-13T10:18:34.132Z,6584
2017-11-13T10:19:34.466Z,11108
2017-11-13T10:20:34.846Z,8756
2017-11-13T10:21:35.108Z,10008
2017-11-13T10:22:34.405Z,9004
2017-11-13T10:23:34.402Z,7520
2017-11-13T10:24:34.386Z,10140
2017-11-13T10:25:34.357Z,8328
2017-11-13T10:26:35.017Z,7452
2017-11-13T10:27:34.671Z,7916
2017-11-13T10:28:34.313Z,7620
2017-11-13T10:29:34.632Z,6620
2017-11-13T10:30:33.946Z,10108
2017-11-13T10:31:34.615Z,8364
2017-11-13T10:32:34.922Z,13480
2017-11-13T10:33:34.953Z,13116
2017-11-13T10:34:33.878Z,14056
2017-11-13T10:35:34.880Z,12888
2017-11-13T10:36:34.521Z,13712
2017-11-13T10:37:34.515Z,10756
2017-11-13T10:38:34.501Z,11520
2017-11-13T10:39:34.479Z,9368
2017-11-13T10:40:34.127Z,7564
2017-11-13T10:41:34.471Z,8328
2017-11-13T10:42:34.778Z,9392
2017-11-13T10:43:34.093Z,12468
2017-11-13T10:44:34.749Z,13664
2017-11-13T10:45:33.726Z,13184
2017-11-13T10:46:34.392Z,14308
2017-11-13T10:47:34.377Z,12176
2017-11-13T10:48:34.023Z,10504
2017-11-13T10:49:34.346Z,10648
2017-11-13T10:50:34.044Z,8088
2017-11-13T10:51:34.314Z,11204
2017-11-13T10:52:34.674Z,7696
2017-11-13T10:53:33.625Z,9316
2017-11-13T10:54:34.294Z,12676
2017-11-13T10:55:34.262Z,16888
2017-11-13T10:56:33.920Z,21376
2017-11-13T10:57:33.898Z,23392
2017-11-13T10:58:34.586Z,23840
2017-11-13T10:59:33.539Z,20832
2017-11-13T11:00:34.268Z,17472
2017-11-13T11:01:34.533Z,13800
2017-11-13T11:02:34.517Z,13388
2017-11-13T11:03:33.832Z,9440
2017-11-13T11:04:34.162Z,11728
2017-11-13T11:05:33.473Z,13136
2017-11-13T11:06:33.788Z,12712
2017-11-13T11:07:34.457Z,16928
2017-11-13T11:08:33.769Z,10800
2017-11-13T11:09:33.756Z,11416
2017-11-13T11:10:34.137Z,11116
2017-11-13T11:11:34.069Z,13316
2017-11-13T11:12:33.390Z,15300
2017-11-13T11:13:34.382Z,10936
2017-11-13T11:14:33.700Z,8252
2017-11-13T11:15:33.687Z,6952
2017-11-13T11:16:33.676Z,6316
2017-11-13T11:17:34.002Z,6092
2017-11-13T11:18:33.656Z,6104
2017-11-13T11:19:34.325Z,6028
2017-11-13T11:20:33.976Z,5964
2017-11-13T11:21:33.952Z,5868
2017-11-13T11:22:33.945Z,5796
2017-11-13T11:23:33.944Z,5712
2017-11-13T11:24:33.935Z,5664
2017-11-13T11:25:33.928Z,5664
2017-11-13T11:26:33.559Z,5724
2017-11-13T11:27:33.879Z,5796
2017-11-13T11:28:33.874Z,5864
2017-11-13T11:29:33.855Z,5940
2017-11-13T11:30:33.850Z,5996
2017-11-13T11:31:33.500Z,6024
2017-11-13T11:32:33.502Z,6040
2017-11-13T11:33:34.156Z,6088
2017-11-13T11:34:33.801Z,6148
2017-11-13T11:35:33.492Z,6236
2017-11-13T11:36:33.766Z,6344
2017-11-13T11:37:33.755Z,6648
2017-11-13T11:38:33.753Z,6908
2017-11-13T11:39:33.051Z,6744
2017-11-13T11:40:33.712Z,6740
2017-11-13T11:41:33.365Z,6940
2017-11-13T11:42:33.352Z,7556
2017-11-13T11:43:33.686Z,7636
2017-11-13T11:44:33.652Z,11008
2017-11-13T11:45:33.331Z,10392
2017-11-13T11:46:33.623Z,9576
2017-11-13T11:47:33.628Z,11036
2017-11-13T11:48:33.941Z,16288
2017-11-13T11:49:33.256Z,22432
2017-11-13T11:50:33.338Z,23968
2017-11-13T11:51:33.277Z,25344
2017-11-13T11:52:33.551Z,25856
2017-11-13T11:53:33.765Z,25568
2017-11-13T11:54:33.190Z,25408
2017-11-13T11:55:33.517Z,24960
2017-11-13T11:56:33.512Z,24640
2017-11-13T11:57:33.828Z,25152
2017-11-13T11:58:33.479Z,25920
2017-11-13T11:59:33.132Z,26752
2017-11-13T12:00:33.469Z,27136
2017-11-13T12:01:33.112Z,25536
2017-11-13T12:02:33.440Z,25568
2017-11-13T12:03:33.098Z,24672
2017-11-13T12:04:33.083Z,23360
2017-11-13T12:05:33.412Z,24480
2017-11-13T12:06:33.447Z,25728
2017-11-13T12:07:33.396Z,25856
2017-11-13T12:08:32.723Z,25248
2017-11-13T12:09:32.701Z,24032
2017-11-13T12:10:33.394Z,21344
2017-11-13T12:11:33.369Z,17600
2017-11-13T12:12:33.358Z,20384
2017-11-13T12:13:33.685Z,20256
2017-11-13T12:14:33.679Z,18400
2017-11-13T12:15:33.343Z,18944
2017-11-13T12:16:33.386Z,18688
2017-11-13T12:17:32.983Z,20736
2017-11-13T12:18:32.981Z,23136
2017-11-13T12:19:33.317Z,25024
2017-11-13T12:20:32.961Z,26144
2017-11-13T12:21:32.954Z,26784
2017-11-13T12:22:33.299Z,24352
2017-11-13T12:23:32.963Z,19968
2017-11-13T12:24:33.271Z,29056
2017-11-13T12:25:33.650Z,19712
2017-11-13T12:26:32.952Z,20160
2017-11-13T12:27:32.921Z,15008
2017-11-13T12:28:33.257Z,13796
2017-11-13T12:29:32.913Z,11612
2017-11-13T12:30:33.242Z,10636
2017-11-13T12:31:32.896Z,10228
2017-11-13T12:32:32.951Z,18112
2017-11-13T12:33:33.233Z,18048
2017-11-13T12:34:33.235Z,27936
2017-11-13T12:35:33.548Z,28416
2017-11-13T12:36:33.199Z,29056
2017-11-13T12:37:33.194Z,27264
2017-11-13T12:38:33.531Z,25856
2017-11-13T12:39:33.192Z,25280
2017-11-13T12:40:32.509Z,24768
2017-11-13T12:41:33.177Z,25568
2017-11-13T12:42:33.173Z,26144
2017-11-13T12:43:33.179Z,19488
2017-11-13T12:44:32.818Z,22304
2017-11-13T12:45:32.812Z,13296
2017-11-13T12:46:32.818Z,11744
2017-11-13T12:47:33.147Z,9748
2017-11-13T12:48:32.476Z,8476
2017-11-13T12:49:32.794Z,7604
2017-11-13T12:50:33.491Z,6344
2017-11-13T12:51:32.451Z,5000
2017-11-13T12:52:33.168Z,5136
2017-11-13T12:53:33.149Z,4940
2017-11-13T12:54:33.112Z,5488
2017-11-13T12:55:32.762Z,9712
2017-11-13T12:56:33.450Z,9904
2017-11-13T12:57:33.154Z,18560
2017-11-13T12:58:32.753Z,10900
2017-11-13T12:59:33.076Z,24416
2017-11-13T13:00:33.070Z,25312
2017-11-13T13:01:33.061Z,15744
2017-11-13T13:02:33.492Z,24640
2017-11-13T13:03:33.044Z,24640
2017-11-13T13:04:33.045Z,22144
2017-11-13T13:05:33.365Z,24064
2017-11-13T13:06:33.044Z,24480
2017-11-13T13:07:33.026Z,21440
2017-11-13T13:08:33.027Z,17984
2017-11-13T13:09:33.003Z,10168
2017-11-13T13:10:33.000Z,8832
2017-11-13T13:11:32.990Z,9600
2017-11-13T13:12:32.651Z,10032
2017-11-13T13:13:32.635Z,13076
2017-11-13T13:14:32.969Z,13260
2017-11-13T13:15:32.953Z,8232
2017-11-13T13:16:32.956Z,12452
2017-11-13T13:17:33.286Z,10528
2017-11-13T13:18:32.935Z,15424
2017-11-13T13:19:32.927Z,17344
2017-11-13T13:20:33.275Z,18848
2017-11-13T13:21:32.915Z,20320
2017-11-13T13:22:32.904Z,20032
2017-11-13T13:23:32.555Z,18144
2017-11-13T13:24:32.557Z,16544
2017-11-13T13:25:32.554Z,15520
2017-11-13T13:26:33.207Z,15584
2017-11-13T13:27:32.871Z,9612
2017-11-13T13:28:32.567Z,9772
2017-11-13T13:29:32.853Z,7396
2017-11-13T13:30:32.844Z,11044
2017-11-13T13:31:32.508Z,12076
2017-11-13T13:32:32.828Z,7812
2017-11-13T13:33:32.822Z,9044
2017-11-13T13:34:32.812Z,7096
2017-11-13T13:35:32.811Z,6560
2017-11-13T13:36:32.141Z,6716
2017-11-13T13:37:32.465Z,6820
2017-11-13T13:38:32.154Z,7140
2017-11-13T13:39:32.431Z,6864
2017-11-13T13:40:32.769Z,6416
2017-11-13T13:41:33.091Z,6220
2017-11-13T13:42:32.748Z,6152
2017-11-13T13:43:32.738Z,5952
2017-11-13T13:44:32.728Z,5696
2017-11-13T13:45:33.073Z,5416
2017-11-13T13:46:32.713Z,5324
2017-11-13T13:47:32.026Z,5276
2017-11-13T13:48:32.413Z,5424
2017-11-13T13:49:32.678Z,5888
2017-11-13T13:50:32.676Z,6380
2017-11-13T13:51:32.668Z,5868
2017-11-13T13:52:32.638Z,5744
2017-11-13T13:53:33.278Z,5772
2017-11-13T13:54:32.316Z,6876
2017-11-13T13:55:32.284Z,7588